Wetterdaten: Woche 12.09.22 - 18.09.22 (KW37)
Datum Zeit Temp. Aussen Temp. o. S. Temp +5cm Feuchte Auss Luftdruck Regen Sonnenschein Regendauer Solar Windben Empfang
12.09.2022 00:00 14,1 C 12,6 C 10,1 C 95 % 1018,2 hPa 0,0 l/m 0,00 h 0,00 h 0 W/m 0,0 km/h (0 Bft) 98,02 %
12.09.2022 01:00 13,5 C 12,2 C 9,7 C 96 % 1017,9 hPa 0,0 l/m 0,00 h 0,00 h 0 W/m 0,0 km/h (0 Bft) 98,42 %
12.09.2022 02:00 13,1 C 11,9 C 9,4 C 96 % 1017,6 hPa 0,0 l/m 0,00 h 0,00 h 0 W/m 0,0 km/h (0 Bft) 97,36 %
12.09.2022 03:00 12,8 C 11,8 C 9,4 C 97 % 1017,2 hPa 0,0 l/m 0,00 h 0,00 h 0 W/m 0,0 km/h (0 Bft) 97,86 %
12.09.2022 04:00 12,6 C 11,7 C 9,4 C 97 % 1016,8 hPa 0,0 l/m 0,00 h 0,00 h 0 W/m 0,1 km/h (0 Bft) 97,42 %
12.09.2022 05:00 12,6 C 11,9 C 9,3 C 98 % 1016,6 hPa 0,2 l/m 0,00 h 0,00 h 0 W/m 0,7 km/h (0 Bft) 99,22 %
12.09.2022 06:00 13,0 C 12,2 C 9,9 C 98 % 1016,4 hPa 0,0 l/m 0,00 h 0,00 h 5 W/m 4,0 km/h (1 Bft) 94,66 %
12.09.2022 07:00 13,2 C 12,8 C 10,2 C 98 % 1016,2 hPa 0,0 l/m 0,27 h 0,00 h 27 W/m 4,9 km/h (1 Bft) 98,86 %
12.09.2022 08:00 13,8 C 13,8 C 10,9 C 98 % 1016,5 hPa 0,0 l/m 0,00 h 0,00 h 85 W/m 9,0 km/h (2 Bft) 98,36 %
12.09.2022 09:00 14,8 C 14,9 C 12,0 C 97 % 1016,4 hPa 0,0 l/m 0,00 h 0,00 h 123 W/m 8,1 km/h (2 Bft) 95,35 %
12.09.2022 10:00 16,2 C 17,1 C 13,4 C 94 % 1016,5 hPa 0,0 l/m 0,23 h 0,00 h 195 W/m 7,7 km/h (2 Bft) 99,29 %
12.09.2022 11:00 18,5 C 20,4 C 15,7 C 88 % 1016,3 hPa 0,0 l/m 0,33 h 0,00 h 328 W/m 7,9 km/h (2 Bft) 97,79 %
12.09.2022 12:00 21,8 C 25,0 C 18,5 C 75 % 1015,7 hPa 0,0 l/m 0,50 h 0,00 h 378 W/m 9,9 km/h (2 Bft) 95,73 %
12.09.2022 13:00 22,8 C 23,1 C 18,1 C 69 % 1015,1 hPa 0,0 l/m 0,43 h 0,00 h 358 W/m 9,4 km/h (2 Bft) 98,79 %
12.09.2022 14:00 24,7 C 29,6 C 18,9 C 61 % 1014,6 hPa 0,0 l/m 1,00 h 0,00 h 698 W/m 11,5 km/h (2 Bft) 97,19 %
12.09.2022 15:00 25,6 C 25,7 C 19,5 C 59 % 1014,0 hPa 0,0 l/m 1,00 h 0,00 h 610 W/m 11,1 km/h (2 Bft) 96,82 %
12.09.2022 16:00 25,8 C 25,9 C 19,8 C 59 % 1013,4 hPa 0,0 l/m 1,00 h 0,00 h 465 W/m 7,3 km/h (2 Bft) 98,81 %
12.09.2022 17:00 25,6 C 26,6 C 19,2 C 58 % 1012,9 hPa 0,0 l/m 0,87 h 0,00 h 254 W/m 5,9 km/h (2 Bft) 97,01 %
12.09.2022 18:00 25,4 C 25,9 C 19,1 C 61 % 1012,3 hPa 0,0 l/m 0,90 h 0,00 h 154 W/m 3,3 km/h (1 Bft) 97,67 %
12.09.2022 19:00 24,7 C 22,0 C 16,9 C 64 % 1011,9 hPa 0,0 l/m 0,00 h 0,00 h 23 W/m 1,1 km/h (0 Bft) 97,40 %
12.09.2022 20:00 21,6 C 18,8 C 14,4 C 76 % 1011,6 hPa 0,0 l/m 0,00 h 0,00 h 0 W/m 0,0 km/h (0 Bft) 98,34 %
12.09.2022 21:00 19,7 C 18,0 C 13,6 C 82 % 1011,5 hPa 0,0 l/m 0,00 h 0,00 h 0 W/m 0,0 km/h (0 Bft) 96,55 %
12.09.2022 22:00 19,0 C 17,8 C 13,4 C 85 % 1011,3 hPa 0,0 l/m 0,00 h 0,00 h 0 W/m 0,0 km/h (0 Bft) 98,43 %
12.09.2022 23:00 18,7 C 17,9 C 14,2 C 82 % 1010,9 hPa 0,0 l/m 0,00 h 0,00 h 0 W/m 3,3 km/h (1 Bft) 96,40 %
13.09.2022 00:00 18,3 C 16,9 C 13,3 C 82 % 1011,2 hPa 0,0 l/m 0,00 h 0,00 h 0 W/m 2,0 km/h (1 Bft) 99,03 %
13.09.2022 01:00 17,7 C 16,4 C 12,7 C 85 % 1011,0 hPa 0,0 l/m 0,00 h 0,00 h 0 W/m 0,5 km/h (0 Bft) 97,29 %
13.09.2022 02:00 17,1 C 16,4 C 12,8 C 86 % 1010,6 hPa 0,0 l/m 0,00 h 0,00 h 0 W/m 1,9 km/h (1 Bft) 96,94 %
13.09.2022 03:00 17,1 C 16,2 C 12,8 C 85 % 1010,3 hPa 0,0 l/m 0,00 h 0,00 h 0 W/m 3,0 km/h (1 Bft) 98,50 %
13.09.2022 04:00 17,1 C 16,5 C 12,8 C 85 % 1010,1 hPa 0,0 l/m 0,00 h 0,03 h 0 W/m 1,7 km/h (1 Bft) 97,51 %
13.09.2022 05:00 17,3 C 16,1 C 12,3 C 87 % 1010,2 hPa 0,0 l/m 0,00 h 0,23 h 0 W/m 0,4 km/h (0 Bft) 97,01 %
13.09.2022 06:00 16,8 C 15,6 C 12,0 C 90 % 1010,1 hPa 0,0 l/m 0,00 h 0,27 h 0 W/m 1,8 km/h (1 Bft) 98,92 %
13.09.2022 07:00 16,6 C 15,7 C 12,3 C 92 % 1010,2 hPa 0,0 l/m 0,00 h 0,00 h 12 W/m 1,6 km/h (1 Bft) 96,31 %
13.09.2022 08:00 16,8 C 16,5 C 13,0 C 93 % 1010,3 hPa 0,0 l/m 0,00 h 0,00 h 45 W/m 0,2 km/h (0 Bft) 97,68 %
13.09.2022 09:00 17,6 C 18,0 C 14,0 C 93 % 1010,3 hPa 0,0 l/m 0,00 h 0,00 h 101 W/m 0,2 km/h (0 Bft) 98,93 %
13.09.2022 10:00 19,3 C 20,5 C 15,9 C 86 % 1010,6 hPa 0,0 l/m 0,10 h 0,00 h 202 W/m 3,1 km/h (1 Bft) 95,21 %
13.09.2022 11:00 21,5 C 22,9 C 17,9 C 77 % 1010,5 hPa 0,0 l/m 0,70 h 0,00 h 352 W/m 5,5 km/h (1 Bft) 99,31 %
13.09.2022 12:00 23,8 C 27,1 C 20,4 C 70 % 1010,3 hPa 0,0 l/m 0,50 h 0,00 h 381 W/m 6,4 km/h (2 Bft) 98,45 %
13.09.2022 13:00 24,2 C 24,6 C 19,6 C 69 % 1010,0 hPa 0,0 l/m 0,47 h 0,00 h 364 W/m 7,4 km/h (2 Bft) 96,86 %
13.09.2022 14:00 25,4 C 29,9 C 19,9 C 65 % 1009,5 hPa 0,0 l/m 1,00 h 0,00 h 641 W/m 7,4 km/h (2 Bft) 97,80 %
13.09.2022 15:00 26,0 C 25,7 C 20,2 C 64 % 1009,3 hPa 0,0 l/m 0,68 h 0,00 h 406 W/m 7,6 km/h (2 Bft) 97,75 %
13.09.2022 16:00 25,5 C 25,2 C 20,0 C 66 % 1009,0 hPa 0,0 l/m 0,37 h 0,00 h 235 W/m 5,9 km/h (2 Bft) 96,78 %
13.09.2022 17:00 24,8 C 23,8 C 19,6 C 70 % 1009,0 hPa 0,0 l/m 0,00 h 0,00 h 96 W/m 6,9 km/h (2 Bft) 98,98 %
13.09.2022 18:00 24,1 C 22,8 C 18,7 C 73 % 1008,9 hPa 0,0 l/m 0,00 h 0,07 h 42 W/m 4,0 km/h (1 Bft) 96,47 %
13.09.2022 19:00 23,3 C 21,4 C 17,3 C 80 % 1008,9 hPa 0,0 l/m 0,00 h 0,00 h 10 W/m 1,3 km/h (1 Bft) 98,63 %
13.09.2022 20:00 22,1 C 20,7 C 16,5 C 86 % 1008,9 hPa 0,0 l/m 0,00 h 0,20 h 0 W/m 3,6 km/h (1 Bft) 96,87 %
13.09.2022 21:00 21,3 C 19,9 C 15,9 C 89 % 1008,8 hPa 0,0 l/m 0,00 h 0,03 h 0 W/m 1,6 km/h (1 Bft) 98,22 %
13.09.2022 22:00 20,7 C 19,1 C 15,0 C 92 % 1008,9 hPa 0,6 l/m 0,00 h 0,90 h 0 W/m 3,1 km/h (1 Bft) 97,20 %
13.09.2022 23:00 18,7 C 17,7 C 13,2 C 91 % 1008,9 hPa 0,6 l/m 0,00 h 0,53 h 0 W/m 3,9 km/h (1 Bft) 98,41 %
14.09.2022 00:00 18,1 C 16,7 C 12,8 C 92 % 1008,8 hPa 0,4 l/m 0,00 h 0,47 h 0 W/m 0,4 km/h (0 Bft) 97,07 %
14.09.2022 01:00 17,7 C 16,7 C 12,7 C 94 % 1008,5 hPa 0,0 l/m 0,00 h 0,03 h 0 W/m 1,7 km/h (1 Bft) 97,65 %
14.09.2022 02:00 16,8 C 15,9 C 11,9 C 93 % 1007,7 hPa 0,0 l/m 0,00 h 0,13 h 0 W/m 4,4 km/h (1 Bft) 98,15 %
14.09.2022 03:00 16,5 C 15,7 C 12,1 C 93 % 1007,2 hPa 0,0 l/m 0,00 h 0,00 h 0 W/m 2,3 km/h (1 Bft) 96,01 %
14.09.2022 04:00 16,3 C 15,1 C 11,4 C 93 % 1007,1 hPa 1,8 l/m 0,00 h 0,77 h 0 W/m 4,2 km/h (1 Bft) 98,65 %
14.09.2022 05:00 15,2 C 14,0 C 10,6 C 95 % 1006,6 hPa 1,0 l/m 0,00 h 0,30 h 0 W/m 8,7 km/h (2 Bft) 98,36 %
14.09.2022 06:00 15,0 C 14,0 C 10,6 C 97 % 1006,5 hPa 0,4 l/m 0,00 h 0,70 h 0 W/m 5,3 km/h (1 Bft) 95,88 %
14.09.2022 07:00 14,8 C 13,9 C 10,6 C 97 % 1006,3 hPa 1,2 l/m 0,00 h 1,00 h 0 W/m 4,9 km/h (1 Bft) 98,29 %
14.09.2022 08:00 14,6 C 13,7 C 10,6 C 98 % 1006,2 hPa 2,6 l/m 0,00 h 1,00 h 11 W/m 5,8 km/h (2 Bft) 98,65 %
14.09.2022 09:00 14,3 C 13,4 C 10,6 C 98 % 1006,3 hPa 1,6 l/m 0,00 h 1,00 h 36 W/m 9,0 km/h (2 Bft) 95,16 %
14.09.2022 10:00 14,4 C 13,8 C 10,6 C 98 % 1006,0 hPa 1,8 l/m 0,00 h 1,00 h 47 W/m 8,0 km/h (2 Bft) 99,57 %
14.09.2022 11:00 14,6 C 13,9 C 10,6 C 98 % 1006,2 hPa 1,6 l/m 0,00 h 1,00 h 55 W/m 7,1 km/h (2 Bft) 96,14 %
14.09.2022 12:00 14,4 C 13,8 C 10,6 C 99 % 1006,0 hPa 1,0 l/m 0,00 h 1,00 h 64 W/m 7,2 km/h (2 Bft) 97,76 %
14.09.2022 13:00 14,6 C 14,0 C 10,9 C 98 % 1005,8 hPa 1,0 l/m 0,00 h 1,00 h 68 W/m 5,2 km/h (1 Bft) 98,01 %
14.09.2022 14:00 14,3 C 13,7 C 10,6 C 98 % 1005,6 hPa 0,8 l/m 0,00 h 1,00 h 59 W/m 4,1 km/h (1 Bft) 97,15 %
14.09.2022 15:00 14,2 C 13,5 C 10,5 C 98 % 1005,2 hPa 0,8 l/m 0,00 h 0,93 h 115 W/m 8,1 km/h (2 Bft) 97,51 %
14.09.2022 16:00 14,5 C 14,2 C 10,8 C 97 % 1004,9 hPa 0,0 l/m 0,00 h 0,03 h 141 W/m 5,0 km/h (1 Bft) 97,30 %
14.09.2022 17:00 14,8 C 14,6 C 10,7 C 96 % 1004,7 hPa 0,0 l/m 0,00 h 0,00 h 99 W/m 5,9 km/h (2 Bft) 96,62 %
14.09.2022 18:00 14,7 C 14,0 C 10,3 C 94 % 1005,2 hPa 0,0 l/m 0,00 h 0,13 h 23 W/m 6,4 km/h (2 Bft) 97,31 %
14.09.2022 19:00 14,8 C 13,9 C 10,5 C 95 % 1005,2 hPa 0,2 l/m 0,00 h 0,23 h 12 W/m 3,6 km/h (1 Bft) 98,07 %
14.09.2022 20:00 14,6 C 13,6 C 10,6 C 96 % 1005,5 hPa 0,0 l/m 0,00 h 0,00 h 0 W/m 1,7 km/h (1 Bft) 98,01 %
14.09.2022 21:00 14,4 C 13,3 C 10,5 C 97 % 1005,7 hPa 0,0 l/m 0,00 h 0,00 h 0 W/m 0,6 km/h (0 Bft) 95,16 %
14.09.2022 22:00 14,1 C 12,8 C 10,0 C 97 % 1006,0 hPa 0,0 l/m 0,00 h 0,00 h 0 W/m 0,2 km/h (0 Bft) 97,70 %
14.09.2022 23:00 13,5 C 12,2 C 9,4 C 97 % 1006,5 hPa 0,0 l/m 0,00 h 0,00 h 0 W/m 1,8 km/h (1 Bft) 99,15 %
15.09.2022 00:00 13,6 C 12,8 C 10,1 C 98 % 1006,9 hPa 0,0 l/m 0,00 h 0,00 h 0 W/m 3,8 km/h (1 Bft) 94,95 %
15.09.2022 01:00 13,5 C 12,5 C 9,9 C 98 % 1007,1 hPa 0,0 l/m 0,00 h 0,00 h 0 W/m 3,7 km/h (1 Bft) 98,85 %
15.09.2022 02:00 12,8 C 11,8 C 9,4 C 98 % 1007,1 hPa 0,0 l/m 0,00 h 0,00 h 0 W/m 0,7 km/h (0 Bft) 98,87 %
15.09.2022 03:00 12,3 C 11,3 C 8,9 C 98 % 1007,0 hPa 0,0 l/m 0,00 h 0,00 h 0 W/m 0,5 km/h (0 Bft) 95,14 %
15.09.2022 04:00 11,9 C 11,1 C 8,9 C 98 % 1007,0 hPa 0,2 l/m 0,00 h 0,00 h 0 W/m 0,6 km/h (0 Bft) 99,39 %
15.09.2022 05:00 12,3 C 11,9 C 9,4 C 99 % 1007,1 hPa 0,0 l/m 0,00 h 0,00 h 0 W/m 3,2 km/h (1 Bft) 97,16 %
15.09.2022 06:00 12,8 C 12,2 C 10,0 C 99 % 1007,1 hPa 0,0 l/m 0,00 h 0,00 h 0 W/m 0,0 km/h (0 Bft) 97,64 %
15.09.2022 07:00 12,7 C 12,2 C 9,7 C 99 % 1007,5 hPa 0,0 l/m 0,00 h 0,00 h 24 W/m 2,0 km/h (1 Bft) 97,29 %
15.09.2022 08:00 13,3 C 13,0 C 10,6 C 99 % 1007,8 hPa 0,0 l/m 0,00 h 0,00 h 51 W/m 2,1 km/h (1 Bft) 97,72 %
15.09.2022 09:00 14,0 C 14,2 C 11,5 C 99 % 1008,3 hPa 0,0 l/m 0,00 h 0,00 h 129 W/m 5,4 km/h (1 Bft) 97,01 %
15.09.2022 10:00 14,9 C 15,7 C 12,7 C 99 % 1008,9 hPa 0,0 l/m 0,30 h 0,00 h 203 W/m 6,0 km/h (2 Bft) 98,29 %
15.09.2022 11:00 16,2 C 17,2 C 14,0 C 91 % 1009,2 hPa 0,0 l/m 0,33 h 0,00 h 260 W/m 6,1 km/h (2 Bft) 96,72 %
15.09.2022 12:00 17,5 C 18,1 C 14,5 C 84 % 1009,2 hPa 0,0 l/m 0,33 h 0,00 h 295 W/m 7,5 km/h (2 Bft) 97,44 %
15.09.2022 13:00 17,7 C 17,6 C 14,1 C 79 % 1009,3 hPa 0,0 l/m 0,00 h 0,00 h 198 W/m 10,0 km/h (2 Bft) 98,07 %
15.09.2022 14:00 16,4 C 15,3 C 11,5 C 84 % 1009,6 hPa 0,4 l/m 0,00 h 0,37 h 44 W/m 10,5 km/h (2 Bft) 97,45 %
15.09.2022 15:00 15,7 C 15,7 C 12,2 C 90 % 1009,6 hPa 0,0 l/m 0,00 h 0,00 h 135 W/m 6,5 km/h (2 Bft) 96,94 %
15.09.2022 16:00 16,6 C 16,7 C 12,8 C 83 % 1009,4 hPa 0,0 l/m 0,00 h 0,00 h 179 W/m 7,2 km/h (2 Bft) 99,36 %
15.09.2022 17:00 17,1 C 17,5 C 13,2 C 79 % 1009,4 hPa 0,0 l/m 0,50 h 0,00 h 194 W/m 9,3 km/h (2 Bft) 94,73 %
15.09.2022 18:00 17,1 C 16,7 C 12,9 C 77 % 1009,5 hPa 0,0 l/m 0,23 h 0,00 h 81 W/m 12,0 km/h (2 Bft) 98,31 %
15.09.2022 19:00 16,3 C 15,4 C 12,0 C 74 % 1009,8 hPa 0,0 l/m 0,00 h 0,00 h 16 W/m 12,1 km/h (2 Bft) 98,29 %
15.09.2022 20:00 15,7 C 14,7 C 11,3 C 77 % 1010,0 hPa 0,0 l/m 0,00 h 0,00 h 0 W/m 10,9 km/h (2 Bft) 95,95 %
15.09.2022 21:00 15,0 C 14,0 C 10,8 C 80 % 1010,5 hPa 0,0 l/m 0,00 h 0,00 h 0 W/m 11,6 km/h (2 Bft) 97,93 %
15.09.2022 22:00 14,1 C 13,1 C 9,8 C 84 % 1010,8 hPa 0,0 l/m 0,00 h 0,00 h 0 W/m 8,6 km/h (2 Bft) 98,93 %
15.09.2022 23:00 13,6 C 12,8 C 9,4 C 86 % 1011,1 hPa 0,0 l/m 0,00 h 0,00 h 0 W/m 5,5 km/h (1 Bft) 95,87 %
16.09.2022 00:00 13,4 C 12,8 C 9,4 C 88 % 1011,2 hPa 0,0 l/m 0,00 h 0,00 h 0 W/m 6,6 km/h (2 Bft) 97,93 %
16.09.2022 01:00 13,2 C 12,3 C 9,4 C 88 % 1011,1 hPa 0,0 l/m 0,00 h 0,00 h 0 W/m 7,0 km/h (2 Bft) 99,08 %
16.09.2022 02:00 12,8 C 11,9 C 9,0 C 88 % 1011,1 hPa 0,0 l/m 0,00 h 0,00 h 0 W/m 5,1 km/h (1 Bft) 95,52 %
16.09.2022 03:00 12,6 C 11,9 C 8,9 C 90 % 1011,0 hPa 0,0 l/m 0,00 h 0,00 h 0 W/m 5,7 km/h (1 Bft) 99,06 %
16.09.2022 04:00 12,6 C 11,9 C 8,4 C 91 % 1010,8 hPa 0,0 l/m 0,00 h 0,17 h 0 W/m 4,6 km/h (1 Bft) 97,75 %
16.09.2022 05:00 12,2 C 11,2 C 8,3 C 93 % 1010,7 hPa 0,0 l/m 0,00 h 0,07 h 0 W/m 4,1 km/h (1 Bft) 95,96 %
16.09.2022 06:00 11,9 C 11,2 C 8,3 C 94 % 1010,5 hPa 0,0 l/m 0,00 h 0,00 h 0 W/m 5,3 km/h (1 Bft) 97,67 %
16.09.2022 07:00 11,7 C 11,1 C 8,3 C 92 % 1010,5 hPa 0,0 l/m 0,00 h 0,00 h 17 W/m 7,9 km/h (2 Bft) 96,80 %
16.09.2022 08:00 12,0 C 11,8 C 8,6 C 91 % 1010,6 hPa 0,0 l/m 0,00 h 0,00 h 55 W/m 9,1 km/h (2 Bft) 98,79 %
16.09.2022 09:00 12,6 C 12,7 C 9,3 C 90 % 1010,8 hPa 0,0 l/m 0,00 h 0,00 h 106 W/m 10,1 km/h (2 Bft) 97,08 %
16.09.2022 10:00 14,0 C 13,9 C 10,3 C 84 % 1011,1 hPa 0,0 l/m 0,07 h 0,00 h 115 W/m 15,4 km/h (3 Bft) 97,72 %
16.09.2022 11:00 15,1 C 15,5 C 11,4 C 79 % 1011,3 hPa 0,0 l/m 0,17 h 0,00 h 201 W/m 13,2 km/h (3 Bft) 96,37 %
16.09.2022 12:00 14,8 C 14,2 C 10,1 C 81 % 1011,1 hPa 1,2 l/m 0,00 h 0,30 h 127 W/m 11,4 km/h (2 Bft) 99,23 %
16.09.2022 13:00 13,5 C 13,1 C 8,0 C 86 % 1011,4 hPa 2,6 l/m 0,13 h 0,43 h 162 W/m 14,5 km/h (3 Bft) 97,40 %
16.09.2022 14:00 12,6 C 13,1 C 7,9 C 92 % 1011,6 hPa 0,0 l/m 0,20 h 0,00 h 259 W/m 10,1 km/h (2 Bft) 95,10 %
16.09.2022 15:00 13,5 C 13,7 C 8,2 C 88 % 1011,4 hPa 0,0 l/m 0,43 h 0,43 h 274 W/m 17,8 km/h (3 Bft) 97,88 %
16.09.2022 16:00 13,7 C 13,8 C 8,8 C 84 % 1011,3 hPa 0,0 l/m 0,53 h 0,00 h 312 W/m 17,2 km/h (3 Bft) 97,87 %
16.09.2022 17:00 14,2 C 15,8 C 9,9 C 82 % 1011,2 hPa 0,0 l/m 0,87 h 0,00 h 316 W/m 16,7 km/h (3 Bft) 96,22 %
16.09.2022 18:00 14,2 C 14,2 C 10,0 C 81 % 1011,3 hPa 0,0 l/m 0,93 h 0,00 h 133 W/m 14,0 km/h (3 Bft) 98,78 %
16.09.2022 19:00 13,2 C 12,4 C 9,0 C 84 % 1011,6 hPa 0,0 l/m 0,00 h 0,00 h 17 W/m 11,7 km/h (2 Bft) 97,22 %
16.09.2022 20:00 12,5 C 11,7 C 8,4 C 85 % 1012,1 hPa 0,0 l/m 0,00 h 0,00 h 0 W/m 9,9 km/h (2 Bft) 96,94 %
16.09.2022 21:00 11,6 C 10,8 C 7,5 C 85 % 1012,3 hPa 0,0 l/m 0,00 h 0,00 h 0 W/m 12,6 km/h (3 Bft) 98,65 %
16.09.2022 22:00 10,8 C 10,1 C 7,1 C 88 % 1012,5 hPa 0,0 l/m 0,00 h 0,00 h 0 W/m 12,1 km/h (2 Bft) 95,94 %
16.09.2022 23:00 10,6 C 10,0 C 6,7 C 89 % 1012,9 hPa 0,0 l/m 0,00 h 0,00 h 0 W/m 12,4 km/h (3 Bft) 96,94 %
17.09.2022 00:00 10,4 C 10,0 C 6,7 C 90 % 1013,0 hPa 0,0 l/m 0,00 h 0,00 h 0 W/m 11,2 km/h (2 Bft) 98,78 %
17.09.2022 01:00 10,4 C 10,0 C 6,7 C 91 % 1013,0 hPa 0,0 l/m 0,00 h 0,00 h 0 W/m 12,2 km/h (3 Bft) 95,62 %
17.09.2022 02:00 10,3 C 9,6 C 6,7 C 92 % 1013,0 hPa 0,0 l/m 0,00 h 0,00 h 0 W/m 12,3 km/h (3 Bft) 97,52 %
17.09.2022 03:00 10,2 C 9,4 C 6,7 C 94 % 1013,4 hPa 0,0 l/m 0,00 h 0,00 h 0 W/m 11,7 km/h (2 Bft) 97,32 %
17.09.2022 04:00 10,2 C 9,4 C 6,7 C 94 % 1013,5 hPa 0,0 l/m 0,00 h 0,00 h 0 W/m 11,7 km/h (2 Bft) 98,59 %
17.09.2022 05:00 10,2 C 9,5 C 6,7 C 94 % 1013,7 hPa 0,0 l/m 0,00 h 0,08 h 0 W/m 12,0 km/h (2 Bft) 95,36 %
17.09.2022 06:00 9,8 C 9,0 C 6,2 C 94 % 1013,9 hPa 0,0 l/m 0,00 h 0,00 h 0 W/m 7,2 km/h (2 Bft) 96,53 %
17.09.2022 07:00 9,7 C 9,2 C 6,4 C 95 % 1014,2 hPa 0,0 l/m 0,00 h 0,00 h 18 W/m 7,5 km/h (2 Bft) 99,15 %
17.09.2022 08:00 10,1 C 9,8 C 6,8 C 93 % 1014,6 hPa 0,0 l/m 0,00 h 0,00 h 47 W/m 9,8 km/h (2 Bft) 96,67 %
17.09.2022 09:00 11,4 C 11,5 C 8,1 C 90 % 1014,8 hPa 0,0 l/m 0,00 h 0,00 h 96 W/m 14,8 km/h (3 Bft) 97,57 %
17.09.2022 10:00 12,9 C 12,8 C 9,1 C 83 % 1014,9 hPa 0,0 l/m 0,00 h 0,00 h 115 W/m 17,6 km/h (3 Bft) 98,22 %
17.09.2022 11:00 14,0 C 14,6 C 10,4 C 76 % 1015,0 hPa 0,0 l/m 0,13 h 0,00 h 264 W/m 17,5 km/h (3 Bft) 97,51 %
17.09.2022 12:00 14,6 C 14,9 C 10,8 C 73 % 1014,7 hPa 0,0 l/m 0,13 h 0,00 h 233 W/m 17,9 km/h (3 Bft) 96,72 %
17.09.2022 13:00 13,2 C 13,0 C 8,6 C 82 % 1014,8 hPa 0,4 l/m 0,40 h 0,37 h 341 W/m 19,8 km/h (4 Bft) 97,65 %
17.09.2022 14:00 13,4 C 14,9 C 8,4 C 84 % 1014,7 hPa 1,8 l/m 0,50 h 0,17 h 381 W/m 16,4 km/h (3 Bft) 97,29 %
17.09.2022 15:00 13,6 C 14,1 C 7,8 C 86 % 1014,1 hPa 0,0 l/m 0,70 h 0,00 h 491 W/m 17,7 km/h (3 Bft) 96,73 %
17.09.2022 16:00 14,6 C 15,1 C 9,3 C 74 % 1014,3 hPa 0,2 l/m 0,77 h 0,00 h 434 W/m 23,5 km/h (4 Bft) 96,31 %
17.09.2022 17:00 14,6 C 15,3 C 10,0 C 73 % 1014,5 hPa 0,0 l/m 0,47 h 0,00 h 196 W/m 27,1 km/h (4 Bft) 97,93 %
17.09.2022 18:00 14,2 C 13,7 C 9,8 C 70 % 1014,8 hPa 0,0 l/m 0,13 h 0,00 h 67 W/m 22,7 km/h (4 Bft) 98,46 %
17.09.2022 19:00 13,4 C 12,4 C 8,8 C 74 % 1015,0 hPa 0,0 l/m 0,00 h 0,10 h 16 W/m 6,2 km/h (2 Bft) 93,82 %
17.09.2022 20:00 12,7 C 11,8 C 8,1 C 82 % 1015,4 hPa 0,0 l/m 0,00 h 0,00 h 0 W/m 1,6 km/h (1 Bft) 99,66 %
17.09.2022 21:00 12,9 C 12,3 C 8,7 C 76 % 1015,7 hPa 0,0 l/m 0,00 h 0,00 h 0 W/m 16,1 km/h (3 Bft) 96,58 %
17.09.2022 22:00 12,5 C 11,7 C 8,3 C 81 % 1015,9 hPa 0,0 l/m 0,00 h 0,00 h 0 W/m 15,9 km/h (3 Bft) 96,31 %
17.09.2022 23:00 11,8 C 11,0 C 7,6 C 86 % 1016,1 hPa 0,0 l/m 0,00 h 0,00 h 0 W/m 13,6 km/h (3 Bft) 98,65 %
18.09.2022 00:00 11,3 C 10,6 C 7,2 C 89 % 1016,2 hPa 0,0 l/m 0,00 h 0,00 h 0 W/m 11,4 km/h (2 Bft) 95,04 %
18.09.2022 01:00 11,4 C 10,6 C 7,3 C 92 % 1016,1 hPa 0,0 l/m 0,00 h 0,37 h 0 W/m 13,0 km/h (3 Bft) 97,72 %
18.09.2022 02:00 11,3 C 10,6 C 7,3 C 93 % 1015,9 hPa 0,0 l/m 0,00 h 0,10 h 0 W/m 14,7 km/h (3 Bft) 98,08 %
18.09.2022 03:00 11,3 C 10,6 C 7,3 C 93 % 1016,0 hPa 0,0 l/m 0,00 h 0,03 h 0 W/m 11,7 km/h (2 Bft) 97,07 %
18.09.2022 04:00 11,2 C 10,6 C 7,1 C 94 % 1015,8 hPa 0,2 l/m 0,00 h 0,37 h 0 W/m 11,8 km/h (2 Bft) 97,01 %
18.09.2022 05:00 11,0 C 10,4 C 7,0 C 96 % 1015,6 hPa 0,4 l/m 0,00 h 0,70 h 0 W/m 13,2 km/h (3 Bft) 99,00 %
18.09.2022 06:00 11,1 C 10,5 C 7,2 C 96 % 1015,5 hPa 0,0 l/m 0,00 h 0,10 h 0 W/m 8,8 km/h (2 Bft) 95,05 %
18.09.2022 07:00 11,2 C 10,6 C 7,2 C 97 % 1015,4 hPa 0,2 l/m 0,00 h 0,23 h 7 W/m 8,5 km/h (2 Bft) 97,86 %
18.09.2022 08:00 11,3 C 10,9 C 7,8 C 97 % 1015,5 hPa 0,0 l/m 0,00 h 0,07 h 32 W/m 10,7 km/h (2 Bft) 96,80 %
18.09.2022 09:00 11,8 C 11,7 C 8,6 C 96 % 1015,3 hPa 0,0 l/m 0,00 h 0,03 h 107 W/m 14,2 km/h (3 Bft) 98,93 %
18.09.2022 10:00 12,3 C 12,1 C 8,8 C 94 % 1015,3 hPa 0,0 l/m 0,00 h 0,50 h 126 W/m 14,8 km/h (3 Bft) 96,73 %
18.09.2022 11:00 12,4 C 12,2 C 8,5 C 95 % 1015,2 hPa 0,2 l/m 0,00 h 0,57 h 153 W/m 14,9 km/h (3 Bft) 97,15 %
18.09.2022 12:00 13,1 C 13,3 C 9,5 C 94 % 1014,8 hPa 0,0 l/m 0,20 h 0,10 h 247 W/m 17,5 km/h (3 Bft) 98,74 %
18.09.2022 13:00 13,5 C 13,4 C 10,0 C 90 % 1014,6 hPa 1,6 l/m 0,00 h 0,23 h 183 W/m 19,4 km/h (3 Bft) 97,22 %
18.09.2022 14:00 11,8 C 11,2 C 7,5 C 94 % 1015,0 hPa 0,6 l/m 0,00 h 1,00 h 112 W/m 14,2 km/h (3 Bft) 95,64 %
18.09.2022 15:00 12,2 C 11,8 C 8,2 C 96 % 1014,8 hPa 0,6 l/m 0,00 h 1,00 h 96 W/m 13,9 km/h (3 Bft) 97,43 %
18.09.2022 16:00 12,1 C 11,7 C 8,0 C 97 % 1014,5 hPa 0,6 l/m 0,00 h 1,00 h 69 W/m 14,8 km/h (3 Bft) 97,86 %
18.09.2022 17:00 11,4 C 10,9 C 7,5 C 96 % 1014,5 hPa 1,2 l/m 0,00 h 1,00 h 46 W/m 12,3 km/h (3 Bft) 96,51 %
18.09.2022 18:00 11,1 C 10,1 C 7,2 C 96 % 1014,6 hPa 1,0 l/m 0,00 h 1,00 h 20 W/m 10,2 km/h (2 Bft) 97,36 %
18.09.2022 19:00 10,2 C 9,2 C 6,4 C 96 % 1015,2 hPa 3,6 l/m 0,00 h 1,00 h 6 W/m 11,8 km/h (2 Bft) 96,65 %
18.09.2022 20:00 9,4 C 8,3 C 6,0 C 97 % 1015,1 hPa 0,2 l/m 0,00 h 0,30 h 0 W/m 4,2 km/h (1 Bft) 96,66 %
18.09.2022 21:00 9,4 C 8,3 C 5,8 C 97 % 1015,8 hPa 0,0 l/m 0,00 h 0,00 h 0 W/m 6,8 km/h (2 Bft) 98,07 %
18.09.2022 22:00 9,3 C 8,3 C 5,8 C 97 % 1016,3 hPa 0,0 l/m 0,00 h 0,00 h 0 W/m 8,6 km/h (2 Bft) 95,74 %
18.09.2022 23:00 9,1 C 8,3 C 5,6 C 97 % 1016,7 hPa 0,2 l/m 0,00 h 0,00 h 0 W/m 7,4 km/h (2 Bft) 96,92 %
Min-Datum _ 18.09.22 18.09.22 18.09.22 12.09.22 14.09.22 - - - - 12.09.22 14.09.22
_ Min-Zeit 23:48 19:38 19:36 17:00 17:12 - - - - 00:00 21:12
Minimum _ 9,0 C 8,3 C 5,6 C 56 % 1004,4 hPa - - - - 0,0 km/h (0 Bft) 48,72 %
Max-Datum _ 13.09.22 13.09.22 13.09.22 12.09.22 12.09.22 18.09.22 13.09.22 14.09.22 17.09.22 17.09.22 12.09.22
_ Max-Zeit 15:22 12:16 12:10 07:38 00:04 19:22 15:16 00:08 14:18 13:12 00:20
Maximum _ 26,4 C 32,8 C 22,8 C 99 % 1018,3 hPa 3,6 l/m 0,08 h 0,07 h 854 W/m 48,3 km/h
O (6 Bft)
100,00 %
Durchschnitt _ 15,0 C 14,6 C 10,9 C 88 % 1011,5 hPa #35,0 l/m #18:49 h #26:15 h 166 W/m 7,9 km/h (2 Bft) 97,43 %
© 2022 W. Hausmann